Time,TemperatureF,DewpointF,PressureIn,WindDirection,WindDirectionDegrees,WindSpeedMPH,WindSpeedGustMPH,Humidity,HourlyPrecipIn,Conditions,Clouds,dailyrainin,SoftwareType,DateUTC
2013-11-21 00:02:00,52.6,50.0,29.88,SSW,203,2.0,3.6,91,0.00,,,0.00,WUHU216HW,2013-11-21 08:02:00,
2013-11-21 00:07:00,52.6,50.0,29.88,WSW,248,3.6,5.4,91,0.00,,,0.00,WUHU216HW,2013-11-21 08:07:00,
2013-11-21 00:12:00,52.6,50.0,29.88,SW,225,4.7,5.4,91,0.00,,,0.00,WUHU216HW,2013-11-21 08:12:00,
2013-11-21 00:17:00,52.4,49.8,29.88,WSW,248,2.0,5.4,91,0.00,,,0.00,WUHU216HW,2013-11-21 08:17:00,
2013-11-21 00:22:00,52.4,49.8,29.88,WSW,248,4.0,5.4,91,0.00,,,0.00,WUHU216HW,2013-11-21 08:22:00,
2013-11-21 00:27:00,52.2,49.6,29.88,SW,225,1.8,4.0,91,0.00,,,0.00,WUHU216HW,2013-11-21 08:27:00,
2013-11-21 00:32:00,52.2,49.6,29.88,SW,225,5.1,5.1,91,0.00,,,0.00,WUHU216HW,2013-11-21 08:32:00,
2013-11-21 00:37:00,52.0,49.4,29.88,SW,225,2.5,5.1,91,0.00,,,0.00,WUHU216HW,2013-11-21 08:37:00,
2013-11-21 00:42:00,52.0,49.4,29.88,SW,225,4.7,4.7,91,0.00,,,0.00,WUHU216HW,2013-11-21 08:42:00,
2013-11-21 00:47:00,52.0,49.4,29.88,SW,225,3.8,4.7,91,0.00,,,0.00,WUHU216HW,2013-11-21 08:47:00,
2013-11-21 00:52:00,52.0,49.4,29.88,SW,225,1.3,4.5,91,0.00,,,0.00,WUHU216HW,2013-11-21 08:52:00,
2013-11-21 00:57:00,52.0,49.4,29.88,West,270,2.5,3.8,91,0.00,,,0.00,WUHU216HW,2013-11-21 08:57:00,
2013-11-21 01:02:00,52.0,49.4,29.88,South,180,1.6,3.4,91,0.00,,,0.00,WUHU216HW,2013-11-21 09:02:00,
2013-11-21 01:07:00,52.0,49.4,29.88,WSW,248,1.8,3.4,91,0.00,,,0.00,WUHU216HW,2013-11-21 09:07:00,
2013-11-21 01:12:00,52.2,49.6,29.87,SSW,203,2.7,4.0,91,0.00,,,0.00,WUHU216HW,2013-11-21 09:12:00,
2013-11-21 01:17:00,52.0,49.4,29.87,SW,225,3.4,4.7,91,0.00,,,0.00,WUHU216HW,2013-11-21 09:17:00,
2013-11-21 01:22:00,52.0,49.4,29.88,WSW,248,2.5,4.7,91,0.00,,,0.00,WUHU216HW,2013-11-21 09:22:00,
2013-11-21 01:27:00,52.0,49.4,29.88,SW,225,2.5,3.4,91,0.00,,,0.00,WUHU216HW,2013-11-21 09:27:00,
2013-11-21 01:32:00,52.0,49.4,29.88,SSE,158,3.1,3.4,91,0.00,,,0.00,WUHU216HW,2013-11-21 09:32:00,
2013-11-21 01:37:00,52.0,49.4,29.88,WSW,248,3.4,3.4,91,0.00,,,0.00,WUHU216HW,2013-11-21 09:37:00,
2013-11-21 01:42:00,52.0,49.4,29.88,SW,225,1.1,3.8,91,0.00,,,0.00,WUHU216HW,2013-11-21 09:42:00,
2013-11-21 01:47:00,52.2,49.6,29.88,SW,225,2.9,4.0,91,0.00,,,0.00,WUHU216HW,2013-11-21 09:47:00,
2013-11-21 01:52:00,52.0,49.4,29.88,SW,225,1.6,4.0,91,0.00,,,0.00,WUHU216HW,2013-11-21 09:52:00,
2013-11-21 01:57:00,52.0,49.4,29.88,WSW,248,1.8,4.0,91,0.00,,,0.00,WUHU216HW,2013-11-21 09:57:00,
2013-11-21 02:02:00,52.0,49.4,29.89,WSW,248,0.9,3.1,91,0.00,,,0.00,WUHU216HW,2013-11-21 10:02:00,
2013-11-21 02:07:00,52.0,49.4,29.89,WSW,248,1.1,2.5,91,0.00,,,0.00,WUHU216HW,2013-11-21 10:07:00,
2013-11-21 02:12:00,52.0,49.4,29.89,West,270,0.7,1.8,91,0.01,,,0.01,WUHU216HW,2013-11-21 10:12:00,
2013-11-21 02:17:00,52.0,49.4,29.89,NNW,338,1.1,1.8,91,0.01,,,0.01,WUHU216HW,2013-11-21 10:17:00,
2013-11-21 02:22:00,52.0,49.4,29.89,North,0,1.1,1.1,91,0.01,,,0.01,WUHU216HW,2013-11-21 10:22:00,
2013-11-21 02:27:00,51.8,49.2,29.89,NW,315,0.9,1.3,91,0.01,,,0.01,WUHU216HW,2013-11-21 10:27:00,
2013-11-21 02:32:00,51.8,49.2,29.89,West,270,2.2,2.2,91,0.01,,,0.01,WUHU216HW,2013-11-21 10:32:00,
2013-11-21 02:37:00,51.7,48.8,29.89,West,270,1.6,2.7,90,0.01,,,0.01,WUHU216HW,2013-11-21 10:37:00,
2013-11-21 02:42:00,51.7,48.8,29.89,West,270,2.0,3.6,90,0.02,,,0.02,WUHU216HW,2013-11-21 10:42:00,
2013-11-21 02:47:00,51.7,48.8,29.89,West,270,2.2,3.6,90,0.02,,,0.02,WUHU216HW,2013-11-21 10:47:00,
2013-11-21 02:52:00,51.7,48.8,29.89,WNW,293,2.0,3.4,90,0.02,,,0.02,WUHU216HW,2013-11-21 10:52:00,
2013-11-21 02:57:00,51.5,48.6,29.89,WNW,293,0.7,3.1,90,0.02,,,0.02,WUHU216HW,2013-11-21 10:57:00,
2013-11-21 03:02:00,51.5,48.6,29.89,NW,315,0.9,3.1,90,0.03,,,0.03,WUHU216HW,2013-11-21 11:02:00,
2013-11-21 03:07:00,51.5,48.6,29.89,WSW,248,1.8,4.0,90,0.03,,,0.03,WUHU216HW,2013-11-21 11:07:00,
2013-11-21 03:12:00,51.5,48.6,29.89,WSW,248,2.5,4.0,90,0.02,,,0.03,WUHU216HW,2013-11-21 11:12:00,
2013-11-21 03:17:00,51.5,48.6,29.89,WSW,248,2.0,3.4,90,0.02,,,0.03,WUHU216HW,2013-11-21 11:17:00,
2013-11-21 03:22:00,51.3,48.4,29.89,WSW,248,1.1,3.4,90,0.02,,,0.03,WUHU216HW,2013-11-21 11:22:00,
2013-11-21 03:27:00,51.3,48.4,29.89,West,270,0.4,2.2,90,0.02,,,0.03,WUHU216HW,2013-11-21 11:27:00,
2013-11-21 03:32:00,51.5,48.6,29.89,WSW,248,0.7,2.2,90,0.02,,,0.03,WUHU216HW,2013-11-21 11:32:00,
2013-11-21 03:37:00,51.3,48.4,29.89,WSW,248,0.4,2.5,90,0.02,,,0.03,WUHU216HW,2013-11-21 11:37:00,
2013-11-21 03:42:00,51.3,48.4,29.89,WSW,248,1.1,2.5,90,0.02,,,0.04,WUHU216HW,2013-11-21 11:42:00,
2013-11-21 03:47:00,51.3,48.4,29.89,WSW,248,1.8,2.7,90,0.03,,,0.05,WUHU216HW,2013-11-21 11:47:00,
2013-11-21 03:52:00,51.3,48.4,29.89,WSW,248,0.7,2.7,90,0.05,,,0.07,WUHU216HW,2013-11-21 11:52:00,
2013-11-21 03:57:00,51.3,48.4,29.89,West,270,1.1,2.5,90,0.05,,,0.07,WUHU216HW,2013-11-21 11:57:00,
2013-11-21 04:02:00,51.3,48.4,29.90,West,270,1.1,2.5,90,0.05,,,0.08,WUHU216HW,2013-11-21 12:02:00,
2013-11-21 04:07:00,51.3,48.4,29.90,WSW,248,2.5,2.5,90,0.06,,,0.09,WUHU216HW,2013-11-21 12:07:00,
2013-11-21 04:12:00,51.3,48.4,29.90,WSW,248,1.3,2.5,90,0.06,,,0.09,WUHU216HW,2013-11-21 12:12:00,
2013-11-21 04:17:00,51.3,48.4,29.90,SW,225,1.6,2.5,90,0.08,,,0.11,WUHU216HW,2013-11-21 12:17:00,
2013-11-21 04:21:00,51.3,48.4,29.90,SW,225,1.1,2.5,90,0.09,,,0.12,WUHU216HW,2013-11-21 12:21:00,
2013-11-21 04:26:00,51.1,48.2,29.90,SW,225,0.9,1.3,90,0.10,,,0.13,WUHU216HW,2013-11-21 12:26:00,
2013-11-21 04:31:00,51.3,48.4,29.90,SW,225,0.7,1.3,90,0.11,,,0.14,WUHU216HW,2013-11-21 12:31:00,
2013-11-21 04:36:00,51.1,48.2,29.90,SW,225,1.6,1.8,90,0.11,,,0.15,WUHU216HW,2013-11-21 12:36:00,
2013-11-21 04:41:00,51.1,48.2,29.90,WSW,248,0.2,1.8,90,0.11,,,0.15,WUHU216HW,2013-11-21 12:41:00,
2013-11-21 04:46:00,51.1,48.5,29.90,NNW,338,0.4,0.9,91,0.09,,,0.15,WUHU216HW,2013-11-21 12:46:00,
2013-11-21 04:51:00,51.1,48.5,29.91,North,0,1.1,2.0,91,0.09,,,0.16,WUHU216HW,2013-11-21 12:51:00,
2013-11-21 04:56:00,51.1,48.5,29.90,ENE,68,1.8,2.5,91,0.09,,,0.16,WUHU216HW,2013-11-21 12:56:00,
2013-11-21 05:01:00,50.6,46.4,29.90,NE,45,7.2,8.5,86,0.09,,,0.17,WUHU216HW,2013-11-21 13:01:00,
2013-11-21 05:06:00,50.4,46.3,29.90,NE,45,8.7,8.7,86,0.08,,,0.17,WUHU216HW,2013-11-21 13:06:00,
2013-11-21 05:11:00,50.0,46.3,29.91,NNE,23,6.5,8.7,87,0.07,,,0.17,WUHU216HW,2013-11-21 13:11:00,
2013-11-21 05:16:00,49.7,45.6,29.91,NE,45,3.1,8.5,86,0.06,,,0.17,WUHU216HW,2013-11-21 13:16:00,
2013-11-21 05:21:00,49.5,45.5,29.91,North,0,4.3,6.9,86,0.05,,,0.18,WUHU216HW,2013-11-21 13:21:00,
2013-11-21 05:26:00,49.3,45.3,29.91,North,0,4.3,8.3,86,0.04,,,0.18,WUHU216HW,2013-11-21 13:26:00,
2013-11-21 05:31:00,49.3,45.3,29.91,NNE,23,8.5,8.5,86,0.04,,,0.18,WUHU216HW,2013-11-21 13:31:00,
2013-11-21 05:36:00,49.3,45.3,29.91,North,0,6.5,8.5,86,0.03,,,0.18,WUHU216HW,2013-11-21 13:36:00,
2013-11-21 05:41:00,49.3,45.5,29.91,NNE,23,6.7,8.5,87,0.03,,,0.18,WUHU216HW,2013-11-21 13:41:00,
2013-11-21 05:46:00,49.3,45.5,29.92,NNE,23,4.9,6.7,87,0.02,,,0.18,WUHU216HW,2013-11-21 13:46:00,
2013-11-21 05:51:00,49.3,44.9,29.92,North,0,7.4,7.6,85,0.02,,,0.18,WUHU216HW,2013-11-21 13:51:00,
2013-11-21 05:56:00,49.1,44.8,29.92,NNE,23,3.4,7.6,85,0.01,,,0.18,WUHU216HW,2013-11-21 13:56:00,
2013-11-21 06:01:00,49.1,44.8,29.92,NNE,23,4.7,6.9,85,0.01,,,0.18,WUHU216HW,2013-11-21 14:01:00,
2013-11-21 06:06:00,49.1,44.8,29.93,NE,45,9.8,9.8,85,0.01,,,0.18,WUHU216HW,2013-11-21 14:06:00,
2013-11-21 06:11:00,49.0,43.7,29.92,NNW,338,8.9,9.8,82,0.02,,,0.19,WUHU216HW,2013-11-21 14:11:00,
2013-11-21 06:16:00,48.8,43.5,29.93,North,0,5.6,12.1,82,0.02,,,0.19,WUHU216HW,2013-11-21 14:16:00,
2013-11-21 06:21:00,48.6,43.0,29.93,North,0,12.8,12.8,81,0.01,,,0.19,WUHU216HW,2013-11-21 14:21:00,
2013-11-21 06:26:00,48.4,43.1,29.93,North,0,4.0,12.8,82,0.01,,,0.19,WUHU216HW,2013-11-21 14:26:00,
2013-11-21 06:31:00,48.4,42.9,29.93,North,0,3.4,8.9,81,0.01,,,0.19,WUHU216HW,2013-11-21 14:31:00,
2013-11-21 06:36:00,48.2,42.3,29.93,North,0,4.0,8.9,80,0.01,,,0.19,WUHU216HW,2013-11-21 14:36:00,
2013-11-21 06:41:00,48.2,42.3,29.93,NNW,338,1.3,4.0,80,0.01,,,0.19,WUHU216HW,2013-11-21 14:41:00,
2013-11-21 06:46:00,48.1,42.1,29.94,NNW,338,4.7,4.7,80,0.01,,,0.19,WUHU216HW,2013-11-21 14:46:00,
2013-11-21 06:51:00,48.1,42.1,29.94,NNE,23,4.5,6.0,80,0.01,,,0.19,WUHU216HW,2013-11-21 14:51:00,
2013-11-21 06:56:00,47.9,42.3,29.94,SE,135,0.9,6.0,81,0.01,,,0.19,WUHU216HW,2013-11-21 14:56:00,
2013-11-21 07:01:00,47.9,41.9,29.94,North,0,6.5,6.5,80,0.01,,,0.19,WUHU216HW,2013-11-21 15:01:00,
2013-11-21 07:06:00,47.9,41.9,29.94,NNE,23,4.7,6.5,80,0.01,,,0.19,WUHU216HW,2013-11-21 15:06:00,
2013-11-21 07:11:00,48.1,41.1,29.94,NE,45,4.5,13.2,77,0.00,,,0.19,WUHU216HW,2013-11-21 15:11:00,
2013-11-21 07:16:00,48.2,41.3,29.94,North,0,4.7,13.2,77,0.00,,,0.19,WUHU216HW,2013-11-21 15:16:00,
2013-11-21 07:21:00,48.2,40.2,29.94,North,0,3.1,6.0,74,0.00,,,0.19,WUHU216HW,2013-11-21 15:21:00,
2013-11-21 07:26:00,48.4,41.5,29.95,SW,225,0.7,7.6,77,0.00,,,0.19,WUHU216HW,2013-11-21 15:26:00,
2013-11-21 07:31:00,48.1,39.4,29.95,NNE,23,13.4,13.4,72,0.00,,,0.19,WUHU216HW,2013-11-21 15:31:00,
2013-11-21 07:36:00,48.4,39.8,29.94,East,90,7.2,13.4,72,0.00,,,0.19,WUHU216HW,2013-11-21 15:36:00,
2013-11-21 07:41:00,48.6,39.6,29.95,NNE,23,8.9,9.8,71,0.00,,,0.19,WUHU216HW,2013-11-21 15:41:00,
2013-11-21 07:46:00,48.8,38.3,29.94,NNE,23,5.1,11.4,67,0.01,,,0.20,WUHU216HW,2013-11-21 15:46:00,
2013-11-21 07:51:00,49.1,40.2,29.95,WNW,293,1.8,11.4,71,0.01,,,0.20,WUHU216HW,2013-11-21 15:51:00,
2013-11-21 07:56:00,49.0,37.3,29.95,ESE,113,6.3,8.5,64,0.01,,,0.20,WUHU216HW,2013-11-21 15:56:00,
2013-11-21 08:01:00,49.1,39.0,29.95,NNE,23,3.6,8.5,68,0.01,,,0.20,WUHU216HW,2013-11-21 16:01:00,
2013-11-21 08:06:00,49.1,39.8,29.95,NE,45,2.2,3.8,70,0.01,,,0.20,WUHU216HW,2013-11-21 16:06:00,
2013-11-21 08:11:00,49.1,38.6,29.95,North,0,4.7,4.7,67,0.01,,,0.20,WUHU216HW,2013-11-21 16:11:00,
2013-11-21 08:16:00,49.1,38.6,29.95,NW,315,3.4,4.7,67,0.01,,,0.20,WUHU216HW,2013-11-21 16:16:00,
2013-11-21 08:21:00,49.3,38.0,29.95,NNE,23,14.1,14.1,65,0.01,,,0.20,WUHU216HW,2013-11-21 16:21:00,
2013-11-21 08:26:00,49.5,37.8,29.95,NE,45,3.1,14.1,64,0.01,,,0.20,WUHU216HW,2013-11-21 16:26:00,
2013-11-21 08:31:00,49.5,38.6,29.95,North,0,2.2,6.5,66,0.01,,,0.20,WUHU216HW,2013-11-21 16:31:00,
2013-11-21 08:36:00,49.5,36.3,29.96,NNE,23,14.1,14.1,60,0.01,,,0.20,WUHU216HW,2013-11-21 16:36:00,
2013-11-21 08:41:00,49.7,36.8,29.96,North,0,3.4,14.1,61,0.01,,,0.20,WUHU216HW,2013-11-21 16:41:00,
2013-11-21 08:46:00,49.9,37.7,29.96,NNW,338,1.1,12.1,63,0.00,,,0.20,WUHU216HW,2013-11-21 16:46:00,
2013-11-21 08:51:00,49.7,37.2,29.96,NNE,23,7.8,7.8,62,0.00,,,0.20,WUHU216HW,2013-11-21 16:51:00,
2013-11-21 08:56:00,49.9,36.5,29.96,NNE,23,8.7,14.3,60,0.00,,,0.20,WUHU216HW,2013-11-21 16:56:00,
2013-11-21 09:01:00,50.0,37.5,29.96,ENE,68,2.7,14.3,62,0.00,,,0.20,WUHU216HW,2013-11-21 17:01:00,
2013-11-21 09:06:00,50.0,35.4,29.96,North,0,5.6,7.4,57,0.00,,,0.20,WUHU216HW,2013-11-21 17:06:00,
2013-11-21 09:11:00,50.2,36.9,29.96,ENE,68,5.4,7.6,60,0.00,,,0.20,WUHU216HW,2013-11-21 17:11:00,
2013-11-21 09:16:00,50.0,35.8,29.96,North,0,4.0,8.7,58,0.00,,,0.20,WUHU216HW,2013-11-21 17:16:00,
2013-11-21 09:21:00,50.0,37.5,29.96,ENE,68,2.5,8.7,62,0.00,,,0.20,WUHU216HW,2013-11-21 17:21:00,
2013-11-21 09:26:00,50.0,37.9,29.97,NE,45,3.4,4.9,63,0.00,,,0.20,WUHU216HW,2013-11-21 17:26:00,
2013-11-21 09:31:00,50.0,37.9,29.97,ENE,68,4.3,4.9,63,0.00,,,0.20,WUHU216HW,2013-11-21 17:31:00,
2013-11-21 09:36:00,50.0,36.3,29.96,NNE,23,4.9,4.9,59,0.00,,,0.20,WUHU216HW,2013-11-21 17:36:00,
2013-11-21 09:41:00,50.4,34.8,29.96,ESE,113,7.6,13.2,55,0.00,,,0.20,WUHU216HW,2013-11-21 17:41:00,
2013-11-21 09:46:00,50.8,36.9,29.96,ENE,68,5.6,13.2,59,0.00,,,0.20,WUHU216HW,2013-11-21 17:46:00,
2013-11-21 09:51:00,50.9,33.9,29.97,North,0,6.7,9.2,52,0.00,,,0.20,WUHU216HW,2013-11-21 17:51:00,
2013-11-21 09:56:00,51.3,37.0,29.96,East,90,5.1,10.5,58,0.00,,,0.20,WUHU216HW,2013-11-21 17:56:00,
2013-11-21 10:01:00,51.5,36.2,29.97,West,270,1.8,10.5,56,0.00,,,0.20,WUHU216HW,2013-11-21 18:01:00,
2013-11-21 10:06:00,51.8,35.2,29.96,North,0,2.7,5.4,53,0.00,,,0.20,WUHU216HW,2013-11-21 18:06:00,
2013-11-21 10:11:00,52.2,35.1,29.96,NE,45,13.2,13.2,52,0.00,,,0.20,WUHU216HW,2013-11-21 18:11:00,
2013-11-21 10:16:00,52.4,34.7,29.96,NNW,338,4.0,13.2,51,0.00,,,0.20,WUHU216HW,2013-11-21 18:16:00,
2013-11-21 10:21:00,52.6,34.9,29.96,NNW,338,2.2,8.1,51,0.00,,,0.20,WUHU216HW,2013-11-21 18:21:00,
2013-11-21 10:26:00,52.9,36.2,29.96,NE,45,3.4,7.6,53,0.00,,,0.20,WUHU216HW,2013-11-21 18:26:00,
2013-11-21 10:31:00,53.1,36.8,29.96,SE,135,0.4,4.7,54,0.00,,,0.20,WUHU216HW,2013-11-21 18:31:00,
2013-11-21 10:36:00,53.3,37.0,29.96,North,0,0.2,4.7,54,0.00,,,0.20,WUHU216HW,2013-11-21 18:36:00,
2013-11-21 10:41:00,53.5,34.7,29.96,NNE,23,2.0,4.9,49,0.00,,,0.20,WUHU216HW,2013-11-21 18:41:00,
2013-11-21 10:46:00,53.5,36.7,29.96,West,270,0.0,4.9,53,0.00,,,0.20,WUHU216HW,2013-11-21 18:46:00,
2013-11-21 10:51:00,53.6,37.4,29.96,ENE,68,2.5,2.9,54,0.00,,,0.20,WUHU216HW,2013-11-21 18:51:00,
2013-11-21 10:56:00,53.8,35.1,29.95,North,0,6.3,6.3,49,0.00,,,0.20,WUHU216HW,2013-11-21 18:56:00,
2013-11-21 11:01:00,54.0,36.3,29.95,East,90,4.7,6.3,51,0.00,,,0.20,WUHU216HW,2013-11-21 19:01:00,
2013-11-21 11:06:00,54.4,34.5,29.94,NE,45,4.0,6.9,47,0.00,,,0.20,WUHU216HW,2013-11-21 19:06:00,
2013-11-21 11:11:00,54.4,33.8,29.94,North,0,8.5,8.5,46,0.00,,,0.20,WUHU216HW,2013-11-21 19:11:00,
2013-11-21 11:16:00,54.5,34.6,29.94,NNE,23,5.1,8.5,47,0.00,,,0.20,WUHU216HW,2013-11-21 19:16:00,
2013-11-21 11:21:00,54.4,33.3,29.94,NNE,23,8.5,14.3,45,0.00,,,0.20,WUHU216HW,2013-11-21 19:21:00,
2013-11-21 11:26:00,54.4,33.3,29.94,NNE,23,10.3,14.3,45,0.00,,,0.20,WUHU216HW,2013-11-21 19:26:00,
2013-11-21 11:31:00,54.4,33.8,29.93,NNW,338,5.6,10.3,46,0.00,,,0.20,WUHU216HW,2013-11-21 19:31:00,
2013-11-21 11:36:00,54.9,33.2,29.93,NNE,23,9.2,11.4,44,0.00,,,0.20,WUHU216HW,2013-11-21 19:36:00,
2013-11-21 11:41:00,54.9,33.9,29.93,North,0,5.4,11.4,45,0.00,,,0.20,WUHU216HW,2013-11-21 19:41:00,
2013-11-21 11:46:00,54.5,33.0,29.93,North,0,7.6,11.2,44,0.00,,,0.20,WUHU216HW,2013-11-21 19:46:00,
2013-11-21 11:51:00,54.4,33.3,29.93,North,0,9.6,11.2,45,0.00,,,0.20,WUHU216HW,2013-11-21 19:51:00,
2013-11-21 11:56:00,54.7,33.1,29.93,North,0,10.3,10.3,44,0.00,,,0.20,WUHU216HW,2013-11-21 19:56:00,
2013-11-21 12:01:00,55.1,33.4,29.93,NNE,23,5.4,10.3,44,0.00,,,0.20,WUHU216HW,2013-11-21 20:01:00,
2013-11-21 12:06:00,55.4,34.3,29.92,NNE,23,4.0,8.5,45,0.00,,,0.20,WUHU216HW,2013-11-21 20:06:00,
2013-11-21 12:11:00,55.4,33.8,29.92,NNE,23,8.1,10.3,44,0.00,,,0.20,WUHU216HW,2013-11-21 20:11:00,
2013-11-21 12:16:00,55.4,31.5,29.92,NNE,23,12.1,12.3,40,0.00,,,0.20,WUHU216HW,2013-11-21 20:16:00,
2013-11-21 12:21:00,55.6,32.2,29.92,North,0,9.4,18.3,41,0.00,,,0.20,WUHU216HW,2013-11-21 20:21:00,
2013-11-21 12:26:00,55.6,33.3,29.92,NNE,23,9.2,18.3,43,0.00,,,0.20,WUHU216HW,2013-11-21 20:26:00,
2013-11-21 12:31:00,55.8,32.4,29.92,NNW,338,6.3,10.3,41,0.00,,,0.20,WUHU216HW,2013-11-21 20:31:00,
2013-11-21 12:36:00,55.8,32.4,29.91,NNE,23,9.6,11.2,41,0.00,,,0.20,WUHU216HW,2013-11-21 20:36:00,
2013-11-21 12:41:00,55.8,32.9,29.92,NNE,23,2.9,11.2,42,0.00,,,0.20,WUHU216HW,2013-11-21 20:41:00,
2013-11-21 12:46:00,55.6,33.3,29.91,North,0,12.5,12.5,43,0.00,,,0.20,WUHU216HW,2013-11-21 20:46:00,
2013-11-21 12:51:00,55.8,32.9,29.91,North,0,6.3,12.5,42,0.00,,,0.20,WUHU216HW,2013-11-21 20:51:00,
2013-11-21 12:56:00,56.2,32.1,29.91,NW,315,4.5,9.2,40,0.00,,,0.20,WUHU216HW,2013-11-21 20:56:00,
2013-11-21 13:01:00,56.2,32.7,29.91,North,0,8.3,8.5,41,0.00,,,0.20,WUHU216HW,2013-11-21 21:01:00,
2013-11-21 13:06:00,56.5,31.8,29.91,North,0,11.4,11.4,39,0.00,,,0.20,WUHU216HW,2013-11-21 21:06:00,
2013-11-21 13:11:00,56.5,31.8,29.91,NNE,23,8.1,11.4,39,0.00,,,0.20,WUHU216HW,2013-11-21 21:11:00,
2013-11-21 13:16:00,56.5,31.8,29.91,North,0,8.1,10.3,39,0.00,,,0.20,WUHU216HW,2013-11-21 21:16:00,
2013-11-21 13:21:00,56.9,31.4,29.91,North,0,8.5,13.0,38,0.00,,,0.20,WUHU216HW,2013-11-21 21:21:00,
2013-11-21 13:26:00,56.9,31.4,29.90,North,0,7.6,13.0,38,0.00,,,0.20,WUHU216HW,2013-11-21 21:26:00,
2013-11-21 13:31:00,57.1,30.2,29.91,NNE,23,13.4,13.4,36,0.00,,,0.20,WUHU216HW,2013-11-21 21:31:00,
2013-11-21 13:36:00,57.1,30.9,29.91,North,0,6.9,13.4,37,0.00,,,0.20,WUHU216HW,2013-11-21 21:36:00,
2013-11-21 13:41:00,57.2,30.3,29.91,NNW,338,9.2,12.3,36,0.00,,,0.20,WUHU216HW,2013-11-21 21:41:00,
2013-11-21 13:46:00,57.2,30.3,29.90,NNE,23,6.5,12.1,36,0.00,,,0.20,WUHU216HW,2013-11-21 21:46:00,
2013-11-21 13:51:00,57.4,30.5,29.90,North,0,8.1,12.1,36,0.00,,,0.20,WUHU216HW,2013-11-21 21:51:00,
2013-11-21 13:56:00,57.4,30.5,29.91,NNW,338,9.2,12.1,36,0.00,,,0.20,WUHU216HW,2013-11-21 21:56:00,
2013-11-21 14:01:00,57.4,30.5,29.90,North,0,7.6,12.1,36,0.00,,,0.20,WUHU216HW,2013-11-21 22:01:00,
2013-11-21 14:06:00,57.4,30.5,29.90,NNE,23,9.4,12.8,36,0.00,,,0.20,WUHU216HW,2013-11-21 22:06:00,
2013-11-21 14:11:00,57.6,29.3,29.90,NNW,338,7.8,12.8,34,0.00,,,0.20,WUHU216HW,2013-11-21 22:11:00,
2013-11-21 14:16:00,57.4,28.4,29.90,North,0,9.2,14.3,33,0.00,,,0.20,WUHU216HW,2013-11-21 22:16:00,
2013-11-21 14:21:00,57.4,28.4,29.90,NNE,23,12.1,14.3,33,0.00,,,0.20,WUHU216HW,2013-11-21 22:21:00,
2013-11-21 14:26:00,57.6,30.6,29.90,NNE,23,5.6,12.1,36,0.00,,,0.20,WUHU216HW,2013-11-21 22:26:00,
2013-11-21 14:31:00,57.6,29.3,29.90,North,0,4.7,13.0,34,0.00,,,0.20,WUHU216HW,2013-11-21 22:31:00,
2013-11-21 14:36:00,57.6,29.3,29.90,North,0,6.9,13.4,34,0.00,,,0.20,WUHU216HW,2013-11-21 22:36:00,
2013-11-21 14:41:00,57.8,28.0,29.90,North,0,12.8,13.4,32,0.00,,,0.20,WUHU216HW,2013-11-21 22:41:00,
2013-11-21 14:46:00,57.6,27.8,29.90,North,0,6.7,13.0,32,0.00,,,0.20,WUHU216HW,2013-11-21 22:46:00,
2013-11-21 14:51:00,57.6,27.8,29.90,NNW,338,9.4,13.0,32,0.00,,,0.20,WUHU216HW,2013-11-21 22:51:00,
2013-11-21 14:56:00,57.4,27.0,29.90,NNE,23,12.8,13.4,31,0.00,,,0.20,WUHU216HW,2013-11-21 22:56:00,
2013-11-21 15:01:00,57.6,27.8,29.90,NNE,23,8.3,13.4,32,0.00,,,0.20,WUHU216HW,2013-11-21 23:01:00,
2013-11-21 15:06:00,57.6,28.5,29.90,North,0,5.4,12.8,33,0.00,,,0.20,WUHU216HW,2013-11-21 23:06:00,
2013-11-21 15:11:00,57.6,28.5,29.90,North,0,5.4,12.8,33,0.00,,,0.20,WUHU216HW,2013-11-21 23:11:00,
2013-11-21 15:16:00,57.4,27.6,29.90,North,0,4.0,6.9,32,0.00,,,0.20,WUHU216HW,2013-11-21 23:16:00,
2013-11-21 15:21:00,57.4,27.6,29.90,North,0,5.6,9.2,32,0.00,,,0.20,WUHU216HW,2013-11-21 23:21:00,
2013-11-21 15:26:00,57.6,28.5,29.90,NNW,338,1.3,11.2,33,0.00,,,0.20,WUHU216HW,2013-11-21 23:26:00,
2013-11-21 15:31:00,57.4,28.4,29.90,North,0,6.7,11.2,33,0.00,,,0.20,WUHU216HW,2013-11-21 23:31:00,
2013-11-21 15:36:00,57.2,29.6,29.90,North,0,2.5,6.9,35,0.00,,,0.20,WUHU216HW,2013-11-21 23:36:00,
2013-11-21 15:41:00,57.2,27.6,29.90,North,0,3.8,12.1,32,0.00,,,0.20,WUHU216HW,2013-11-21 23:41:00,
2013-11-21 15:46:00,57.2,28.2,29.90,NNW,338,3.8,12.1,33,0.00,,,0.20,WUHU216HW,2013-11-21 23:46:00,
2013-11-21 15:51:00,57.1,28.7,29.90,NW,315,4.0,9.4,34,0.00,,,0.20,WUHU216HW,2013-11-21 23:51:00,
2013-11-21 15:56:00,56.9,27.9,29.90,North,0,2.5,12.8,33,0.00,,,0.20,WUHU216HW,2013-11-21 23:56:00,
2013-11-21 16:02:00,56.9,28.6,29.90,NW,315,4.7,12.8,34,0.00,,,0.20,WUHU216HW,2013-11-22 00:02:00,
2013-11-21 16:07:00,56.5,26.8,29.90,NNE,23,4.7,5.4,32,0.00,,,0.20,WUHU216HW,2013-11-22 00:07:00,
2013-11-21 16:12:00,56.5,27.5,29.90,NNW,338,6.7,10.7,33,0.00,,,0.20,WUHU216HW,2013-11-22 00:12:00,
2013-11-21 16:17:00,56.5,26.8,29.90,North,0,8.1,10.7,32,0.00,,,0.20,WUHU216HW,2013-11-22 00:17:00,
2013-11-21 16:22:00,56.5,26.8,29.90,NNE,23,10.3,10.3,32,0.00,,,0.20,WUHU216HW,2013-11-22 00:22:00,
2013-11-21 16:27:00,56.2,27.3,29.90,NNE,23,8.3,10.3,33,0.00,,,0.20,WUHU216HW,2013-11-22 00:27:00,
2013-11-21 16:32:00,56.2,29.3,29.90,ESE,113,1.1,8.3,36,0.00,,,0.20,WUHU216HW,2013-11-22 00:32:00,
2013-11-21 16:37:00,55.8,27.6,29.89,NNE,23,4.7,8.5,34,0.00,,,0.20,WUHU216HW,2013-11-22 00:37:00,
2013-11-21 16:42:00,55.6,27.5,29.89,NNE,23,4.9,9.6,34,0.00,,,0.20,WUHU216HW,2013-11-22 00:42:00,
2013-11-21 16:47:00,55.4,27.3,29.89,North,0,3.6,10.5,34,0.00,,,0.20,WUHU216HW,2013-11-22 00:47:00,
2013-11-21 16:52:00,55.6,27.5,29.89,North,0,6.0,10.5,34,0.00,,,0.20,WUHU216HW,2013-11-22 00:52:00,
2013-11-21 16:57:00,55.4,27.3,29.89,North,0,5.6,10.7,34,0.00,,,0.20,WUHU216HW,2013-11-22 00:57:00,
2013-11-21 17:02:00,55.4,27.3,29.89,North,0,3.1,10.7,34,0.00,,,0.20,WUHU216HW,2013-11-22 01:02:00,
2013-11-21 17:07:00,55.4,27.3,29.89,NNW,338,10.1,10.1,34,0.00,,,0.20,WUHU216HW,2013-11-22 01:07:00,
2013-11-21 17:12:00,55.3,28.5,29.89,NNE,23,7.8,10.1,36,0.00,,,0.20,WUHU216HW,2013-11-22 01:12:00,
2013-11-21 17:17:00,55.3,27.8,29.89,NNW,338,4.3,8.5,35,0.00,,,0.20,WUHU216HW,2013-11-22 01:17:00,
2013-11-21 17:22:00,55.1,28.4,29.89,North,0,8.5,8.7,36,0.00,,,0.20,WUHU216HW,2013-11-22 01:22:00,
2013-11-21 17:27:00,55.1,28.4,29.89,North,0,3.1,11.0,36,0.00,,,0.20,WUHU216HW,2013-11-22 01:27:00,
2013-11-21 17:32:00,55.1,29.1,29.89,NNW,338,5.1,12.1,37,0.00,,,0.20,WUHU216HW,2013-11-22 01:32:00,
2013-11-21 17:37:00,55.1,28.4,29.89,North,0,6.7,14.3,36,0.00,,,0.20,WUHU216HW,2013-11-22 01:37:00,
2013-11-21 17:42:00,55.1,29.1,29.89,NNW,338,3.1,14.3,37,0.00,,,0.20,WUHU216HW,2013-11-22 01:42:00,
2013-11-21 17:47:00,55.1,29.1,29.89,North,0,5.1,12.1,37,0.00,,,0.20,WUHU216HW,2013-11-22 01:47:00,
2013-11-21 17:52:00,54.9,28.9,29.89,North,0,4.0,14.3,37,0.00,,,0.20,WUHU216HW,2013-11-22 01:52:00,
2013-11-21 17:57:00,54.9,28.9,29.89,North,0,8.1,20.1,37,0.00,,,0.20,WUHU216HW,2013-11-22 01:57:00,
2013-11-21 18:02:00,54.7,29.4,29.89,North,0,11.4,20.1,38,0.00,,,0.20,WUHU216HW,2013-11-22 02:02:00,
2013-11-21 18:07:00,54.7,29.4,29.89,NNE,23,9.6,14.8,38,0.00,,,0.20,WUHU216HW,2013-11-22 02:07:00,
2013-11-21 18:08:00,54.7,29.4,29.89,NNE,23,6.3,14.8,38,0.00,,,0.20,WUHU216HW,2013-11-22 02:08:00,
2013-11-21 18:09:00,54.7,29.4,29.89,NNE,23,7.6,14.8,38,0.00,,,0.20,WUHU216HW,2013-11-22 02:09:00,
2013-11-21 18:10:00,54.7,29.4,29.89,NNE,23,8.1,14.8,38,0.00,,,0.20,WUHU216HW,2013-11-22 02:10:00,
2013-11-21 18:15:00,54.5,29.4,29.89,North,0,8.9,14.3,38,0.00,,,0.20,WUHU216HW,2013-11-22 02:15:00,
2013-11-21 18:20:00,54.5,29.4,29.90,NNE,23,11.4,13.0,38,0.00,,,0.20,WUHU216HW,2013-11-22 02:20:00,
2013-11-21 18:25:00,54.4,29.2,29.90,NNW,338,9.2,12.1,38,0.00,,,0.20,WUHU216HW,2013-11-22 02:25:00,
2013-11-21 18:30:00,54.4,29.2,29.90,NNE,23,5.4,12.1,38,0.00,,,0.20,WUHU216HW,2013-11-22 02:30:00,
2013-11-21 18:35:00,54.4,29.2,29.90,North,0,15.0,17.9,38,0.00,,,0.20,WUHU216HW,2013-11-22 02:35:00,
2013-11-21 18:40:00,54.4,29.2,29.90,NE,45,11.4,17.9,38,0.00,,,0.20,WUHU216HW,2013-11-22 02:40:00,
2013-11-21 18:45:00,54.4,29.2,29.90,NW,315,9.8,14.1,38,0.00,,,0.20,WUHU216HW,2013-11-22 02:45:00,
2013-11-21 18:50:00,54.4,29.2,29.90,North,0,6.9,16.8,38,0.00,,,0.20,WUHU216HW,2013-11-22 02:50:00,
2013-11-21 18:55:00,54.4,29.9,29.90,NNW,338,8.1,16.8,39,0.00,,,0.20,WUHU216HW,2013-11-22 02:55:00,
2013-11-21 19:00:00,54.0,29.5,29.90,North,0,14.1,15.4,39,0.00,,,0.20,WUHU216HW,2013-11-22 03:00:00,
2013-11-21 19:05:00,54.0,30.3,29.90,North,0,10.5,18.1,40,0.00,,,0.20,WUHU216HW,2013-11-22 03:05:00,
2013-11-21 19:10:00,53.8,30.1,29.90,North,0,14.5,18.1,40,0.00,,,0.20,WUHU216HW,2013-11-22 03:10:00,
2013-11-21 19:15:00,53.6,29.9,29.90,NNW,338,12.3,14.5,40,0.00,,,0.20,WUHU216HW,2013-11-22 03:15:00,
2013-11-21 19:20:00,53.6,30.4,29.91,North,0,6.9,14.3,41,0.00,,,0.20,WUHU216HW,2013-11-22 03:20:00,
2013-11-21 19:25:00,53.5,30.2,29.91,North,0,12.8,15.0,41,0.00,,,0.20,WUHU216HW,2013-11-22 03:25:00,
2013-11-21 19:30:00,53.3,30.2,29.90,North,0,13.4,16.1,41,0.00,,,0.20,WUHU216HW,2013-11-22 03:30:00,
2013-11-21 19:35:00,53.3,30.2,29.91,North,0,11.9,16.1,41,0.00,,,0.20,WUHU216HW,2013-11-22 03:35:00,
2013-11-21 19:40:00,53.1,30.0,29.91,North,0,15.0,16.1,41,0.00,,,0.20,WUHU216HW,2013-11-22 03:40:00,
2013-11-21 19:45:00,53.3,30.2,29.91,NNW,338,8.9,17.9,41,0.00,,,0.20,WUHU216HW,2013-11-22 03:45:00,
2013-11-21 19:50:00,53.1,30.0,29.91,NNW,338,11.2,17.9,41,0.00,,,0.20,WUHU216HW,2013-11-22 03:50:00,
2013-11-21 19:55:00,53.1,30.0,29.91,NNW,338,5.8,15.0,41,0.00,,,0.20,WUHU216HW,2013-11-22 03:55:00,
2013-11-21 20:00:00,53.1,29.4,29.91,NNE,23,11.9,15.0,40,0.00,,,0.20,WUHU216HW,2013-11-22 04:00:00,
2013-11-21 20:05:00,52.9,29.8,29.91,NE,45,14.5,14.5,41,0.00,,,0.20,WUHU216HW,2013-11-22 04:05:00,
2013-11-21 20:10:00,52.7,29.6,29.91,North,0,9.4,14.5,41,0.00,,,0.20,WUHU216HW,2013-11-22 04:10:00,
2013-11-21 20:15:00,52.7,29.6,29.92,NNE,23,18.3,18.3,41,0.00,,,0.20,WUHU216HW,2013-11-22 04:15:00,
2013-11-21 20:20:00,52.7,30.2,29.92,NNW,338,9.4,18.3,42,0.00,,,0.20,WUHU216HW,2013-11-22 04:20:00,
2013-11-21 20:25:00,52.6,30.1,29.92,NNW,338,7.8,11.6,42,0.00,,,0.20,WUHU216HW,2013-11-22 04:25:00,
2013-11-21 20:30:00,52.4,29.9,29.92,NNE,23,12.1,12.1,42,0.00,,,0.20,WUHU216HW,2013-11-22 04:30:00,
2013-11-21 20:35:00,52.2,29.7,29.92,NNE,23,7.4,12.1,42,0.00,,,0.20,WUHU216HW,2013-11-22 04:35:00,
2013-11-21 20:40:00,52.2,29.7,29.93,North,0,11.0,15.0,42,0.00,,,0.20,WUHU216HW,2013-11-22 04:40:00,
2013-11-21 20:45:00,52.2,29.7,29.93,NNW,338,9.4,15.0,42,0.00,,,0.20,WUHU216HW,2013-11-22 04:45:00,
2013-11-21 20:50:00,52.2,29.7,29.94,North,0,8.7,11.0,42,0.00,,,0.20,WUHU216HW,2013-11-22 04:50:00,
2013-11-21 20:55:00,52.2,29.7,29.94,NNW,338,4.9,11.4,42,0.00,,,0.20,WUHU216HW,2013-11-22 04:55:00,
2013-11-21 21:00:00,52.2,29.2,29.94,North,0,5.4,15.0,41,0.00,,,0.20,WUHU216HW,2013-11-22 05:00:00,
2013-11-21 21:01:00,52.2,29.7,29.94,North,0,10.5,15.0,42,0.00,,,0.20,WUHU216HW,2013-11-22 05:01:00,
2013-11-21 21:06:00,52.2,30.2,29.94,NNE,23,10.3,15.0,43,0.00,,,0.20,WUHU216HW,2013-11-22 05:06:00,
2013-11-21 21:11:00,52.2,29.2,29.94,North,0,5.1,17.0,41,0.00,,,0.20,WUHU216HW,2013-11-22 05:11:00,
2013-11-21 21:16:00,52.2,29.2,29.94,NW,315,7.6,17.0,41,0.00,,,0.20,WUHU216HW,2013-11-22 05:16:00,
2013-11-21 21:21:00,52.4,29.4,29.94,North,0,15.7,15.9,41,0.00,,,0.20,WUHU216HW,2013-11-22 05:21:00,
2013-11-21 21:26:00,52.4,29.4,29.94,North,0,16.3,16.3,41,0.00,,,0.20,WUHU216HW,2013-11-22 05:26:00,
2013-11-21 21:31:00,52.6,29.4,29.94,North,0,12.1,16.3,41,0.00,,,0.20,WUHU216HW,2013-11-22 05:31:00,
2013-11-21 21:36:00,52.4,28.7,29.94,NNE,23,14.1,14.1,40,0.00,,,0.20,WUHU216HW,2013-11-22 05:36:00,
2013-11-21 21:41:00,52.2,29.2,29.94,NNE,23,12.8,14.1,41,0.00,,,0.20,WUHU216HW,2013-11-22 05:41:00,
2013-11-21 21:46:00,52.2,29.2,29.94,NNE,23,8.9,14.8,41,0.00,,,0.20,WUHU216HW,2013-11-22 05:46:00,
2013-11-21 21:51:00,52.2,28.6,29.94,NE,45,10.1,15.9,40,0.00,,,0.20,WUHU216HW,2013-11-22 05:51:00,
2013-11-21 21:56:00,52.2,28.6,29.94,NNE,23,8.1,15.9,40,0.00,,,0.20,WUHU216HW,2013-11-22 05:56:00,
2013-11-21 22:01:00,52.2,28.6,29.95,North,0,12.5,15.7,40,0.00,,,0.20,WUHU216HW,2013-11-22 06:01:00,
2013-11-21 22:06:00,52.2,27.9,29.95,North,0,12.8,15.7,39,0.00,,,0.20,WUHU216HW,2013-11-22 06:06:00,
2013-11-21 22:11:00,52.2,27.9,29.96,NNE,23,10.5,12.8,39,0.00,,,0.20,WUHU216HW,2013-11-22 06:11:00,
2013-11-21 22:16:00,52.0,27.7,29.96,NNE,23,10.7,12.1,39,0.00,,,0.20,WUHU216HW,2013-11-22 06:16:00,
2013-11-21 22:21:00,52.0,27.7,29.96,North,0,5.1,12.1,39,0.00,,,0.20,WUHU216HW,2013-11-22 06:21:00,
2013-11-21 22:26:00,51.7,27.5,29.96,NNE,23,9.2,12.5,39,0.00,,,0.20,WUHU216HW,2013-11-22 06:26:00,
2013-11-21 22:31:00,51.7,27.5,29.96,NNW,338,7.2,14.5,39,0.00,,,0.20,WUHU216HW,2013-11-22 06:31:00,
2013-11-21 22:36:00,51.7,27.5,29.96,NE,45,8.1,14.5,39,0.00,,,0.20,WUHU216HW,2013-11-22 06:36:00,
2013-11-21 22:41:00,51.5,26.6,29.96,NNE,23,9.2,11.6,38,0.00,,,0.20,WUHU216HW,2013-11-22 06:41:00,
2013-11-21 22:46:00,51.5,26.6,29.96,North,0,8.1,12.8,38,0.00,,,0.20,WUHU216HW,2013-11-22 06:46:00,
2013-11-21 22:51:00,51.5,26.6,29.96,NNE,23,9.2,12.8,38,0.00,,,0.20,WUHU216HW,2013-11-22 06:51:00,
2013-11-21 22:56:00,51.5,26.6,29.96,NW,315,4.7,12.1,38,0.00,,,0.20,WUHU216HW,2013-11-22 06:56:00,
2013-11-21 23:01:00,51.5,25.9,29.96,North,0,9.4,14.5,37,0.00,,,0.20,WUHU216HW,2013-11-22 07:01:00,
2013-11-21 23:06:00,51.3,25.8,29.96,NNW,338,11.9,14.5,37,0.00,,,0.20,WUHU216HW,2013-11-22 07:06:00,
2013-11-21 23:11:00,51.3,25.8,29.96,North,0,8.7,11.9,37,0.00,,,0.20,WUHU216HW,2013-11-22 07:11:00,
2013-11-21 23:16:00,51.1,25.6,29.96,NNW,338,13.9,13.9,37,0.00,,,0.20,WUHU216HW,2013-11-22 07:16:00,
2013-11-21 23:21:00,51.1,25.6,29.96,NE,45,6.0,13.9,37,0.00,,,0.20,WUHU216HW,2013-11-22 07:21:00,
2013-11-21 23:26:00,51.3,25.0,29.96,NNE,23,6.3,18.6,36,0.00,,,0.20,WUHU216HW,2013-11-22 07:26:00,
2013-11-21 23:31:00,51.3,25.0,29.97,NNW,338,7.4,18.6,36,0.00,,,0.20,WUHU216HW,2013-11-22 07:31:00,
2013-11-21 23:36:00,51.3,25.0,29.97,NNE,23,8.9,11.6,36,0.00,,,0.20,WUHU216HW,2013-11-22 07:36:00,
2013-11-21 23:41:00,51.3,24.4,29.96,North,0,6.7,16.6,35,0.00,,,0.20,WUHU216HW,2013-11-22 07:41:00,
2013-11-21 23:46:00,51.3,23.7,29.96,North,0,11.0,16.6,34,0.00,,,0.20,WUHU216HW,2013-11-22 07:46:00,
2013-11-21 23:51:00,51.5,23.9,29.96,NE,45,7.8,14.3,34,0.00,,,0.20,WUHU216HW,2013-11-22 07:51:00,
2013-11-21 23:56:00,51.5,23.9,29.97,North,0,10.7,14.3,34,0.00,,,0.20,WUHU216HW,2013-11-22 07:56:00,